To NAV CANADA Home Page Login to a new session Search on AWWS site Disclaimer Vers la page française équivalente Tips FAQ What's new on the site To the Forecasts and Observations / NOTAM section To "File a Flight Plan" website Publications and other links Update of the User's profile FIC Telephone Numbers My Weather Data Folder Route Weather Data Regional Weather Data Local Weather Data To the Forecasts and Observations / NOTAM section
Request Generated 04/12/2021 at 03:11:09 UTC . Weather information available at that time is displayed.

METAR/TAF

IQALUIT/NU    

METAR CYFB 120300Z 14014KT 15SM SCT009 OVC020 01/M00 A3026 RMK ST4SC4 SLP252=
SPECI CYFB 120211Z 14005KT 15SM SCT009 OVC021 01/M01 A3027 RMK ST4SC4 SLP254=
METAR CYFB 120200Z 13007G16KT 15SM BKN009 OVC021 01/M01 A3027 RMK ST5SC3 SLP254=
METAR CYFB 120100Z 11008G15KT 15SM BKN009 OVC023 00/M01 A3027 RMK ST5SC3 SLP256=

TAF CYFB 112342Z 1200/1224 14015G25KT P6SM FEW007 BKN030 TEMPO
1200/1203 3SM -RASN BR BKN006
FM120300 14015G25KT 6SM BR OVC020 TEMPO 1203/1224 2SM -RA BR
OVC006
BECMG 1216/1218 14005KT
RMK NXT FCST BY 120600Z=
Your time UTC time
Weather data provided by Environment Canada and NAV CANADA